EGAC/BHD METAR and TAF weather

Enter ICAO airport designator
Station Type Date Time Source
EGAC METAR 2020/02/26 09:20 UTC NOAA

EGAC 260920Z 26012KT 9999 FEW020CB 04/01 Q1003


Station Type Date Time Source
EGAC Decoded METAR 2020/02/26 09:20 UTC NOAA

Belfast / Harbour, United Kingdom (EGAC) 54-36N 005-53W 0M
Feb 26, 2020 - 04:20 AM EST / 2020.02.26 0920 UTC
Wind: from the W (260 degrees) at 14 MPH (12 KT):0
Visibility: greater than 7 mile(s):0
Sky conditions: mostly clear
Weather: Cumulonimbus clouds observed
Temperature: 39 F (4 C)
Dew Point: 33 F (1 C)
Relative Humidity: 80%
Pressure (altimeter): 29.62 in. Hg (1003 hPa)
ob: EGAC 260920Z 26012KT 9999 FEW020CB 04/01 Q1003
cycle: 9

Station Type Date Time Source
EGAC TAF UTC NOAA

Error!

Example: see airport list